sensor_id;sensor_type;location;lat;lon;timestamp;P1;durP1;ratioP1;P2;durP2;ratioP2
65174;SDS011;51761;42.126;24.752;2024-01-16T00:02:06;111.78;;;46.80;;
65174;SDS011;51761;42.126;24.752;2024-01-16T00:04:33;105.68;;;45.80;;
65174;SDS011;51761;42.126;24.752;2024-01-16T00:06:58;113.45;;;48.08;;
65174;SDS011;51761;42.126;24.752;2024-01-16T00:09:23;108.13;;;46.08;;
65174;SDS011;51761;42.126;24.752;2024-01-16T00:11:49;107.43;;;46.45;;
65174;SDS011;51761;42.126;24.752;2024-01-16T00:14:14;107.15;;;45.72;;
65174;SDS011;51761;42.126;24.752;2024-01-16T00:16:43;110.18;;;45.88;;
65174;SDS011;51761;42.126;24.752;2024-01-16T00:19:09;105.82;;;45.38;;
65174;SDS011;51761;42.126;24.752;2024-01-16T00:21:39;110.30;;;46.08;;
65174;SDS011;51761;42.126;24.752;2024-01-16T00:24:04;111.50;;;48.58;;
65174;SDS011;51761;42.126;24.752;2024-01-16T00:26:30;124.25;;;49.70;;
65174;SDS011;51761;42.126;24.752;2024-01-16T00:28:55;106.63;;;45.45;;
65174;SDS011;51761;42.126;24.752;2024-01-16T00:31:20;101.45;;;42.95;;
65174;SDS011;51761;42.126;24.752;2024-01-16T00:33:45;103.05;;;44.78;;
65174;SDS011;51761;42.126;24.752;2024-01-16T00:36:11;107.20;;;46.15;;
65174;SDS011;51761;42.126;24.752;2024-01-16T00:38:36;127.97;;;50.28;;
65174;SDS011;51761;42.126;24.752;2024-01-16T00:41:01;109.97;;;46.70;;
65174;SDS011;51761;42.126;24.752;2024-01-16T00:43:27;98.40;;;44.03;;
65174;SDS011;51761;42.126;24.752;2024-01-16T00:45:52;98.45;;;44.42;;
65174;SDS011;51761;42.126;24.752;2024-01-16T00:48:18;105.28;;;44.47;;
65174;SDS011;51761;42.126;24.752;2024-01-16T00:50:44;99.45;;;44.55;;
65174;SDS011;51761;42.126;24.752;2024-01-16T00:53:11;101.90;;;44.00;;
65174;SDS011;51761;42.126;24.752;2024-01-16T00:55:36;117.80;;;46.85;;
65174;SDS011;51761;42.126;24.752;2024-01-16T00:58:02;103.40;;;45.78;;
65174;SDS011;51761;42.126;24.752;2024-01-16T01:00:27;107.63;;;45.78;;
65174;SDS011;51761;42.126;24.752;2024-01-16T01:02:55;105.35;;;44.88;;
65174;SDS011;51761;42.126;24.752;2024-01-16T01:05:20;106.38;;;46.47;;
65174;SDS011;51761;42.126;24.752;2024-01-16T01:07:45;103.35;;;45.90;;
65174;SDS011;51761;42.126;24.752;2024-01-16T01:10:11;112.32;;;45.90;;
65174;SDS011;51761;42.126;24.752;2024-01-16T01:12:36;111.65;;;45.20;;
65174;SDS011;51761;42.126;24.752;2024-01-16T01:15:01;103.32;;;45.28;;
65174;SDS011;51761;42.126;24.752;2024-01-16T01:17:27;105.93;;;44.40;;
65174;SDS011;51761;42.126;24.752;2024-01-16T01:19:52;102.55;;;44.33;;
65174;SDS011;51761;42.126;24.752;2024-01-16T01:22:17;109.93;;;47.97;;
65174;SDS011;51761;42.126;24.752;2024-01-16T01:24:42;115.35;;;45.55;;
65174;SDS011;51761;42.126;24.752;2024-01-16T01:27:08;109.25;;;46.13;;
65174;SDS011;51761;42.126;24.752;2024-01-16T01:29:33;111.55;;;44.97;;
65174;SDS011;51761;42.126;24.752;2024-01-16T01:31:58;100.13;;;43.55;;
65174;SDS011;51761;42.126;24.752;2024-01-16T01:34:24;100.15;;;44.00;;
65174;SDS011;51761;42.126;24.752;2024-01-16T01:36:49;102.90;;;44.60;;
65174;SDS011;51761;42.126;24.752;2024-01-16T01:39:14;109.28;;;44.55;;
65174;SDS011;51761;42.126;24.752;2024-01-16T01:41:40;108.45;;;45.92;;
65174;SDS011;51761;42.126;24.752;2024-01-16T01:44:05;106.35;;;46.92;;
65174;SDS011;51761;42.126;24.752;2024-01-16T01:46:31;102.22;;;44.67;;
65174;SDS011;51761;42.126;24.752;2024-01-16T01:48:57;109.53;;;47.38;;
65174;SDS011;51761;42.126;24.752;2024-01-16T01:51:23;108.65;;;46.90;;
65174;SDS011;51761;42.126;24.752;2024-01-16T01:53:49;115.10;;;47.22;;
65174;SDS011;51761;42.126;24.752;2024-01-16T01:56:16;110.97;;;46.95;;
65174;SDS011;51761;42.126;24.752;2024-01-16T01:58:46;107.68;;;44.63;;
65174;SDS011;51761;42.126;24.752;2024-01-16T02:01:11;114.03;;;45.65;;
65174;SDS011;51761;42.126;24.752;2024-01-16T02:03:46;115.95;;;45.20;;
65174;SDS011;51761;42.126;24.752;2024-01-16T02:06:12;111.68;;;47.47;;
65174;SDS011;51761;42.126;24.752;2024-01-16T02:08:41;104.03;;;46.17;;
65174;SDS011;51761;42.126;24.752;2024-01-16T02:11:07;105.32;;;45.25;;
65174;SDS011;51761;42.126;24.752;2024-01-16T02:13:32;109.53;;;46.70;;
65174;SDS011;51761;42.126;24.752;2024-01-16T02:15:58;114.72;;;47.90;;
65174;SDS011;51761;42.126;24.752;2024-01-16T02:18:23;111.95;;;48.58;;
65174;SDS011;51761;42.126;24.752;2024-01-16T02:20:49;107.07;;;45.65;;
65174;SDS011;51761;42.126;24.752;2024-01-16T02:23:14;117.22;;;46.50;;
65174;SDS011;51761;42.126;24.752;2024-01-16T02:25:43;114.63;;;47.83;;
65174;SDS011;51761;42.126;24.752;2024-01-16T02:28:08;118.78;;;47.90;;
65174;SDS011;51761;42.126;24.752;2024-01-16T02:30:34;107.47;;;47.60;;
65174;SDS011;51761;42.126;24.752;2024-01-16T02:32:59;100.75;;;45.40;;
65174;SDS011;51761;42.126;24.752;2024-01-16T02:35:24;110.68;;;48.08;;
65174;SDS011;51761;42.126;24.752;2024-01-16T02:37:49;104.97;;;44.67;;
65174;SDS011;51761;42.126;24.752;2024-01-16T02:40:15;109.45;;;43.80;;
65174;SDS011;51761;42.126;24.752;2024-01-16T02:42:40;100.70;;;43.22;;
65174;SDS011;51761;42.126;24.752;2024-01-16T02:45:05;100.85;;;43.33;;
65174;SDS011;51761;42.126;24.752;2024-01-16T02:47:31;100.18;;;42.60;;
65174;SDS011;51761;42.126;24.752;2024-01-16T02:49:57;103.60;;;41.75;;
65174;SDS011;51761;42.126;24.752;2024-01-16T02:52:23;101.85;;;42.20;;
65174;SDS011;51761;42.126;24.752;2024-01-16T02:54:48;100.25;;;42.65;;
65174;SDS011;51761;42.126;24.752;2024-01-16T02:57:14;100.28;;;43.53;;
65174;SDS011;51761;42.126;24.752;2024-01-16T02:59:39;98.78;;;43.88;;
65174;SDS011;51761;42.126;24.752;2024-01-16T03:02:04;106.50;;;44.60;;
65174;SDS011;51761;42.126;24.752;2024-01-16T03:04:30;109.32;;;46.25;;
65174;SDS011;51761;42.126;24.752;2024-01-16T03:06:55;107.40;;;46.75;;
65174;SDS011;51761;42.126;24.752;2024-01-16T03:09:20;114.65;;;46.03;;
65174;SDS011;51761;42.126;24.752;2024-01-16T03:11:46;110.00;;;45.47;;
65174;SDS011;51761;42.126;24.752;2024-01-16T03:14:11;107.88;;;46.38;;
65174;SDS011;51761;42.126;24.752;2024-01-16T03:16:38;104.55;;;45.20;;
65174;SDS011;51761;42.126;24.752;2024-01-16T03:19:03;114.80;;;47.60;;
65174;SDS011;51761;42.126;24.752;2024-01-16T03:21:29;114.63;;;47.05;;
65174;SDS011;51761;42.126;24.752;2024-01-16T03:23:54;109.43;;;45.78;;
65174;SDS011;51761;42.126;24.752;2024-01-16T03:26:19;114.38;;;45.40;;
65174;SDS011;51761;42.126;24.752;2024-01-16T03:28:45;99.88;;;44.30;;
65174;SDS011;51761;42.126;24.752;2024-01-16T03:31:11;103.65;;;45.22;;
65174;SDS011;51761;42.126;24.752;2024-01-16T03:33:37;120.55;;;47.92;;
65174;SDS011;51761;42.126;24.752;2024-01-16T03:36:07;117.03;;;47.35;;
65174;SDS011;51761;42.126;24.752;2024-01-16T03:38:32;114.85;;;48.70;;
65174;SDS011;51761;42.126;24.752;2024-01-16T03:40:59;165.88;;;63.97;;
65174;SDS011;51761;42.126;24.752;2024-01-16T03:43:24;114.03;;;47.05;;
65174;SDS011;51761;42.126;24.752;2024-01-16T03:45:49;102.78;;;46.00;;
65174;SDS011;51761;42.126;24.752;2024-01-16T03:48:15;105.70;;;43.97;;
65174;SDS011;51761;42.126;24.752;2024-01-16T03:50:40;115.25;;;43.67;;
65174;SDS011;51761;42.126;24.752;2024-01-16T03:53:09;109.60;;;44.35;;
65174;SDS011;51761;42.126;24.752;2024-01-16T03:55:34;119.53;;;48.40;;
65174;SDS011;51761;42.126;24.752;2024-01-16T03:57:59;111.32;;;47.75;;
65174;SDS011;51761;42.126;24.752;2024-01-16T04:00:24;120.78;;;50.97;;
65174;SDS011;51761;42.126;24.752;2024-01-16T04:02:50;107.10;;;47.08;;
65174;SDS011;51761;42.126;24.752;2024-01-16T04:05:15;109.85;;;46.60;;
65174;SDS011;51761;42.126;24.752;2024-01-16T04:07:40;114.72;;;48.35;;
65174;SDS011;51761;42.126;24.752;2024-01-16T04:10:06;112.10;;;48.53;;
65174;SDS011;51761;42.126;24.752;2024-01-16T04:12:31;115.80;;;49.75;;
65174;SDS011;51761;42.126;24.752;2024-01-16T04:14:57;108.72;;;47.45;;
65174;SDS011;51761;42.126;24.752;2024-01-16T04:17:22;105.70;;;47.83;;
65174;SDS011;51761;42.126;24.752;2024-01-16T04:19:47;117.45;;;50.15;;
65174;SDS011;51761;42.126;24.752;2024-01-16T04:22:12;111.72;;;48.08;;
65174;SDS011;51761;42.126;24.752;2024-01-16T04:24:38;120.15;;;48.97;;
65174;SDS011;51761;42.126;24.752;2024-01-16T04:27:03;112.70;;;47.83;;
65174;SDS011;51761;42.126;24.752;2024-01-16T04:29:29;118.05;;;49.63;;
65174;SDS011;51761;42.126;24.752;2024-01-16T04:31:54;122.90;;;51.63;;
65174;SDS011;51761;42.126;24.752;2024-01-16T04:34:20;130.82;;;50.17;;
65174;SDS011;51761;42.126;24.752;2024-01-16T04:36:45;150.13;;;61.35;;
65174;SDS011;51761;42.126;24.752;2024-01-16T04:39:11;132.00;;;55.35;;
65174;SDS011;51761;42.126;24.752;2024-01-16T04:41:37;116.20;;;49.38;;
65174;SDS011;51761;42.126;24.752;2024-01-16T04:44:02;115.75;;;48.97;;
65174;SDS011;51761;42.126;24.752;2024-01-16T04:46:27;103.30;;;47.13;;
65174;SDS011;51761;42.126;24.752;2024-01-16T04:48:53;108.30;;;46.67;;
65174;SDS011;51761;42.126;24.752;2024-01-16T04:51:18;100.65;;;42.15;;
65174;SDS011;51761;42.126;24.752;2024-01-16T04:53:43;106.00;;;44.88;;
65174;SDS011;51761;42.126;24.752;2024-01-16T04:56:09;105.28;;;44.30;;
65174;SDS011;51761;42.126;24.752;2024-01-16T04:58:34;99.72;;;44.50;;
65174;SDS011;51761;42.126;24.752;2024-01-16T05:00:59;105.15;;;44.03;;
65174;SDS011;51761;42.126;24.752;2024-01-16T05:03:25;97.88;;;43.58;;
65174;SDS011;51761;42.126;24.752;2024-01-16T05:05:50;104.70;;;42.50;;
65174;SDS011;51761;42.126;24.752;2024-01-16T05:08:15;98.90;;;43.25;;
65174;SDS011;51761;42.126;24.752;2024-01-16T05:10:41;97.40;;;43.50;;
65174;SDS011;51761;42.126;24.752;2024-01-16T05:13:06;92.43;;;41.30;;
65174;SDS011;51761;42.126;24.752;2024-01-16T05:15:31;106.35;;;45.28;;
65174;SDS011;51761;42.126;24.752;2024-01-16T05:17:57;92.53;;;41.20;;
65174;SDS011;51761;42.126;24.752;2024-01-16T05:20:22;92.63;;;40.20;;
65174;SDS011;51761;42.126;24.752;2024-01-16T05:22:48;88.93;;;40.63;;
65174;SDS011;51761;42.126;24.752;2024-01-16T05:25:13;100.03;;;42.63;;
65174;SDS011;51761;42.126;24.752;2024-01-16T05:27:38;91.18;;;41.55;;
65174;SDS011;51761;42.126;24.752;2024-01-16T05:30:04;99.22;;;42.13;;
65174;SDS011;51761;42.126;24.752;2024-01-16T05:32:29;107.43;;;43.63;;
65174;SDS011;51761;42.126;24.752;2024-01-16T05:34:55;92.28;;;40.25;;
65174;SDS011;51761;42.126;24.752;2024-01-16T05:37:20;95.55;;;41.67;;
65174;SDS011;51761;42.126;24.752;2024-01-16T05:39:45;95.30;;;40.88;;
65174;SDS011;51761;42.126;24.752;2024-01-16T05:42:11;91.57;;;37.70;;
65174;SDS011;51761;42.126;24.752;2024-01-16T05:44:37;91.00;;;39.17;;
65174;SDS011;51761;42.126;24.752;2024-01-16T05:47:03;99.20;;;39.90;;
65174;SDS011;51761;42.126;24.752;2024-01-16T05:49:28;89.15;;;38.25;;
65174;SDS011;51761;42.126;24.752;2024-01-16T05:51:54;100.05;;;38.90;;
65174;SDS011;51761;42.126;24.752;2024-01-16T05:54:19;79.07;;;35.28;;
65174;SDS011;51761;42.126;24.752;2024-01-16T05:56:44;85.70;;;35.70;;
65174;SDS011;51761;42.126;24.752;2024-01-16T05:59:09;73.28;;;33.75;;
65174;SDS011;51761;42.126;24.752;2024-01-16T06:01:35;70.57;;;32.67;;
65174;SDS011;51761;42.126;24.752;2024-01-16T06:04:00;64.63;;;29.08;;
65174;SDS011;51761;42.126;24.752;2024-01-16T06:06:25;62.10;;;27.38;;
65174;SDS011;51761;42.126;24.752;2024-01-16T06:08:51;64.38;;;27.42;;
65174;SDS011;51761;42.126;24.752;2024-01-16T06:11:16;55.35;;;23.83;;
65174;SDS011;51761;42.126;24.752;2024-01-16T06:13:41;55.58;;;23.70;;
65174;SDS011;51761;42.126;24.752;2024-01-16T06:16:07;49.47;;;23.25;;
65174;SDS011;51761;42.126;24.752;2024-01-16T06:18:35;37.70;;;19.08;;
65174;SDS011;51761;42.126;24.752;2024-01-16T06:21:01;39.03;;;18.73;;
65174;SDS011;51761;42.126;24.752;2024-01-16T06:23:26;45.22;;;18.58;;
65174;SDS011;51761;42.126;24.752;2024-01-16T06:25:52;40.15;;;18.35;;
65174;SDS011;51761;42.126;24.752;2024-01-16T06:28:17;36.38;;;16.25;;
65174;SDS011;51761;42.126;24.752;2024-01-16T06:30:42;32.25;;;15.98;;
65174;SDS011;51761;42.126;24.752;2024-01-16T06:33:08;36.88;;;16.88;;
65174;SDS011;51761;42.126;24.752;2024-01-16T06:35:33;31.38;;;14.77;;
65174;SDS011;51761;42.126;24.752;2024-01-16T06:37:58;34.95;;;13.23;;
65174;SDS011;51761;42.126;24.752;2024-01-16T06:40:24;26.08;;;10.73;;
65174;SDS011;51761;42.126;24.752;2024-01-16T06:42:49;19.35;;;10.20;;
65174;SDS011;51761;42.126;24.752;2024-01-16T06:45:14;17.10;;;8.93;;
65174;SDS011;51761;42.126;24.752;2024-01-16T06:47:40;16.40;;;9.20;;
65174;SDS011;51761;42.126;24.752;2024-01-16T06:50:07;14.55;;;7.10;;
65174;SDS011;51761;42.126;24.752;2024-01-16T06:52:33;15.05;;;6.85;;
65174;SDS011;51761;42.126;24.752;2024-01-16T06:54:58;11.02;;;6.55;;
65174;SDS011;51761;42.126;24.752;2024-01-16T06:57:23;15.07;;;7.20;;
65174;SDS011;51761;42.126;24.752;2024-01-16T06:59:48;12.48;;;6.38;;
65174;SDS011;51761;42.126;24.752;2024-01-16T07:02:14;12.45;;;6.47;;
65174;SDS011;51761;42.126;24.752;2024-01-16T07:04:39;11.75;;;6.88;;
65174;SDS011;51761;42.126;24.752;2024-01-16T07:07:05;18.98;;;6.93;;
65174;SDS011;51761;42.126;24.752;2024-01-16T07:09:30;11.63;;;6.15;;
65174;SDS011;51761;42.126;24.752;2024-01-16T07:11:56;13.27;;;6.50;;
65174;SDS011;51761;42.126;24.752;2024-01-16T07:14:21;11.43;;;6.07;;
65174;SDS011;51761;42.126;24.752;2024-01-16T07:16:46;10.45;;;5.60;;
65174;SDS011;51761;42.126;24.752;2024-01-16T07:19:12;12.18;;;5.60;;
65174;SDS011;51761;42.126;24.752;2024-01-16T07:21:37;12.48;;;6.53;;
65174;SDS011;51761;42.126;24.752;2024-01-16T07:24:03;10.07;;;5.40;;
65174;SDS011;51761;42.126;24.752;2024-01-16T07:26:28;14.10;;;5.90;;
65174;SDS011;51761;42.126;24.752;2024-01-16T07:28:54;12.60;;;6.15;;
65174;SDS011;51761;42.126;24.752;2024-01-16T07:31:19;10.55;;;5.85;;
65174;SDS011;51761;42.126;24.752;2024-01-16T07:33:45;15.93;;;6.03;;
65174;SDS011;51761;42.126;24.752;2024-01-16T07:36:10;8.70;;;5.43;;
65174;SDS011;51761;42.126;24.752;2024-01-16T07:38:36;8.80;;;4.57;;
65174;SDS011;51761;42.126;24.752;2024-01-16T07:41:01;9.55;;;5.20;;
65174;SDS011;51761;42.126;24.752;2024-01-16T07:43:26;8.05;;;4.45;;
65174;SDS011;51761;42.126;24.752;2024-01-16T07:45:52;12.77;;;5.30;;
65174;SDS011;51761;42.126;24.752;2024-01-16T07:48:17;9.63;;;4.65;;
65174;SDS011;51761;42.126;24.752;2024-01-16T07:50:42;18.65;;;6.43;;
65174;SDS011;51761;42.126;24.752;2024-01-16T07:53:09;10.00;;;4.72;;
65174;SDS011;51761;42.126;24.752;2024-01-16T07:55:34;11.18;;;5.78;;
65174;SDS011;51761;42.126;24.752;2024-01-16T07:57:59;11.55;;;4.78;;
65174;SDS011;51761;42.126;24.752;2024-01-16T08:00:25;11.35;;;4.60;;
65174;SDS011;51761;42.126;24.752;2024-01-16T08:02:50;13.05;;;6.07;;
65174;SDS011;51761;42.126;24.752;2024-01-16T08:05:15;7.80;;;4.28;;
65174;SDS011;51761;42.126;24.752;2024-01-16T08:07:44;14.38;;;4.78;;
65174;SDS011;51761;42.126;24.752;2024-01-16T08:10:09;14.50;;;4.20;;
65174;SDS011;51761;42.126;24.752;2024-01-16T08:12:35;7.93;;;3.85;;
65174;SDS011;51761;42.126;24.752;2024-01-16T08:15:02;7.03;;;3.70;;
65174;SDS011;51761;42.126;24.752;2024-01-16T08:17:27;9.50;;;3.78;;
65174;SDS011;51761;42.126;24.752;2024-01-16T08:19:53;7.30;;;4.07;;
65174;SDS011;51761;42.126;24.752;2024-01-16T08:22:18;14.35;;;3.65;;
65174;SDS011;51761;42.126;24.752;2024-01-16T08:24:44;13.82;;;4.05;;
65174;SDS011;51761;42.126;24.752;2024-01-16T08:27:09;7.45;;;3.80;;
65174;SDS011;51761;42.126;24.752;2024-01-16T08:29:35;6.38;;;4.03;;
65174;SDS011;51761;42.126;24.752;2024-01-16T08:32:00;7.32;;;4.25;;
65174;SDS011;51761;42.126;24.752;2024-01-16T08:34:25;7.10;;;3.97;;
65174;SDS011;51761;42.126;24.752;2024-01-16T08:36:51;9.98;;;4.40;;
65174;SDS011;51761;42.126;24.752;2024-01-16T08:39:21;6.50;;;3.72;;
65174;SDS011;51761;42.126;24.752;2024-01-16T08:41:47;11.32;;;3.95;;
65174;SDS011;51761;42.126;24.752;2024-01-16T08:44:12;7.88;;;3.30;;
65174;SDS011;51761;42.126;24.752;2024-01-16T08:46:37;7.80;;;3.95;;
65174;SDS011;51761;42.126;24.752;2024-01-16T08:49:02;8.35;;;3.97;;
65174;SDS011;51761;42.126;24.752;2024-01-16T08:51:28;7.05;;;3.67;;
65174;SDS011;51761;42.126;24.752;2024-01-16T08:53:53;10.80;;;5.07;;
65174;SDS011;51761;42.126;24.752;2024-01-16T08:56:18;7.72;;;3.85;;
65174;SDS011;51761;42.126;24.752;2024-01-16T08:58:45;8.18;;;3.83;;
65174;SDS011;51761;42.126;24.752;2024-01-16T09:01:11;9.18;;;4.05;;
65174;SDS011;51761;42.126;24.752;2024-01-16T09:03:36;8.57;;;3.58;;
65174;SDS011;51761;42.126;24.752;2024-01-16T09:06:02;6.70;;;3.60;;
65174;SDS011;51761;42.126;24.752;2024-01-16T09:08:27;7.28;;;4.15;;
65174;SDS011;51761;42.126;24.752;2024-01-16T09:10:53;6.38;;;3.72;;
65174;SDS011;51761;42.126;24.752;2024-01-16T09:13:18;8.98;;;4.18;;
65174;SDS011;51761;42.126;24.752;2024-01-16T09:15:45;5.25;;;3.47;;
65174;SDS011;51761;42.126;24.752;2024-01-16T09:18:11;5.78;;;3.65;;
65174;SDS011;51761;42.126;24.752;2024-01-16T09:20:37;5.90;;;3.53;;
65174;SDS011;51761;42.126;24.752;2024-01-16T09:23:02;9.52;;;3.28;;
65174;SDS011;51761;42.126;24.752;2024-01-16T09:25:27;6.65;;;2.42;;
65174;SDS011;51761;42.126;24.752;2024-01-16T09:27:54;12.13;;;2.72;;
65174;SDS011;51761;42.126;24.752;2024-01-16T09:30:20;4.60;;;2.63;;
65174;SDS011;51761;42.126;24.752;2024-01-16T09:32:47;9.98;;;2.70;;
65174;SDS011;51761;42.126;24.752;2024-01-16T09:35:13;6.47;;;2.20;;
65174;SDS011;51761;42.126;24.752;2024-01-16T09:37:38;11.35;;;3.00;;
65174;SDS011;51761;42.126;24.752;2024-01-16T09:40:05;8.52;;;2.45;;
65174;SDS011;51761;42.126;24.752;2024-01-16T09:42:30;6.55;;;2.78;;
65174;SDS011;51761;42.126;24.752;2024-01-16T09:44:56;5.15;;;2.95;;
65174;SDS011;51761;42.126;24.752;2024-01-16T09:47:22;6.07;;;3.20;;
65174;SDS011;51761;42.126;24.752;2024-01-16T09:49:47;8.35;;;3.15;;
65174;SDS011;51761;42.126;24.752;2024-01-16T09:52:13;5.15;;;2.60;;
65174;SDS011;51761;42.126;24.752;2024-01-16T09:54:39;5.78;;;2.60;;
65174;SDS011;51761;42.126;24.752;2024-01-16T09:57:05;7.43;;;2.42;;
65174;SDS011;51761;42.126;24.752;2024-01-16T09:59:31;7.25;;;2.17;;
65174;SDS011;51761;42.126;24.752;2024-01-16T10:01:57;5.50;;;2.35;;
65174;SDS011;51761;42.126;24.752;2024-01-16T10:04:26;10.57;;;2.58;;
65174;SDS011;51761;42.126;24.752;2024-01-16T10:06:52;13.23;;;2.60;;
65174;SDS011;51761;42.126;24.752;2024-01-16T10:09:19;7.78;;;2.13;;
65174;SDS011;51761;42.126;24.752;2024-01-16T10:11:44;5.57;;;1.85;;
65174;SDS011;51761;42.126;24.752;2024-01-16T10:14:10;4.07;;;2.30;;
65174;SDS011;51761;42.126;24.752;2024-01-16T10:17:09;5.90;;;1.88;;
65174;SDS011;51761;42.126;24.752;2024-01-16T10:19:30;6.05;;;3.00;;
65174;SDS011;51761;42.126;24.752;2024-01-16T10:22:03;5.97;;;2.38;;
65174;SDS011;51761;42.126;24.752;2024-01-16T10:24:28;6.22;;;2.40;;
65174;SDS011;51761;42.126;24.752;2024-01-16T10:26:57;22.50;;;2.65;;
65174;SDS011;51761;42.126;24.752;2024-01-16T10:29:23;4.45;;;2.10;;
65174;SDS011;51761;42.126;24.752;2024-01-16T10:31:48;6.82;;;2.75;;
65174;SDS011;51761;42.126;24.752;2024-01-16T10:34:20;5.55;;;2.42;;
65174;SDS011;51761;42.126;24.752;2024-01-16T10:36:46;8.30;;;3.17;;
65174;SDS011;51761;42.126;24.752;2024-01-16T10:39:12;4.10;;;2.33;;
65174;SDS011;51761;42.126;24.752;2024-01-16T10:41:38;4.25;;;2.45;;
65174;SDS011;51761;42.126;24.752;2024-01-16T10:44:04;6.90;;;3.03;;
65174;SDS011;51761;42.126;24.752;2024-01-16T10:46:30;4.15;;;2.22;;
65174;SDS011;51761;42.126;24.752;2024-01-16T10:48:59;3.28;;;2.08;;
65174;SDS011;51761;42.126;24.752;2024-01-16T10:51:25;9.02;;;2.88;;
65174;SDS011;51761;42.126;24.752;2024-01-16T10:53:51;5.60;;;2.65;;
65174;SDS011;51761;42.126;24.752;2024-01-16T10:56:21;5.70;;;2.53;;
65174;SDS011;51761;42.126;24.752;2024-01-16T10:58:46;5.63;;;2.28;;
65174;SDS011;51761;42.126;24.752;2024-01-16T11:01:16;5.72;;;2.55;;
65174;SDS011;51761;42.126;24.752;2024-01-16T11:03:47;5.43;;;1.83;;
65174;SDS011;51761;42.126;24.752;2024-01-16T11:06:18;5.88;;;2.40;;
65174;SDS011;51761;42.126;24.752;2024-01-16T11:08:47;2.92;;;1.98;;
65174;SDS011;51761;42.126;24.752;2024-01-16T11:11:13;3.35;;;2.20;;
65174;SDS011;51761;42.126;24.752;2024-01-16T11:13:38;7.18;;;2.00;;
65174;SDS011;51761;42.126;24.752;2024-01-16T11:16:03;4.43;;;2.45;;
65174;SDS011;51761;42.126;24.752;2024-01-16T11:18:30;8.07;;;2.08;;
65174;SDS011;51761;42.126;24.752;2024-01-16T11:20:55;2.33;;;1.90;;
65174;SDS011;51761;42.126;24.752;2024-01-16T11:23:21;9.75;;;2.50;;
65174;SDS011;51761;42.126;24.752;2024-01-16T11:25:46;4.55;;;1.85;;
65174;SDS011;51761;42.126;24.752;2024-01-16T11:28:12;3.10;;;1.67;;
65174;SDS011;51761;42.126;24.752;2024-01-16T11:30:38;4.95;;;1.75;;
65174;SDS011;51761;42.126;24.752;2024-01-16T11:33:04;2.65;;;1.80;;
65174;SDS011;51761;42.126;24.752;2024-01-16T11:38:05;2.95;;;1.42;;
65174;SDS011;51761;42.126;24.752;2024-01-16T11:40:34;10.93;;;1.60;;
65174;SDS011;51761;42.126;24.752;2024-01-16T11:45:48;2.85;;;1.90;;
65174;SDS011;51761;42.126;24.752;2024-01-16T11:48:15;2.47;;;1.65;;
65174;SDS011;51761;42.126;24.752;2024-01-16T11:50:40;3.85;;;1.48;;
65174;SDS011;51761;42.126;24.752;2024-01-16T11:53:06;12.40;;;2.22;;
65174;SDS011;51761;42.126;24.752;2024-01-16T11:55:32;5.85;;;1.75;;
65174;SDS011;51761;42.126;24.752;2024-01-16T12:00:42;4.18;;;1.50;;
65174;SDS011;51761;42.126;24.752;2024-01-16T12:03:10;5.38;;;1.45;;
65174;SDS011;51761;42.126;24.752;2024-01-16T12:05:38;3.00;;;1.73;;
65174;SDS011;51761;42.126;24.752;2024-01-16T12:08:04;2.90;;;1.77;;
65174;SDS011;51761;42.126;24.752;2024-01-16T12:10:31;2.90;;;1.70;;
65174;SDS011;51761;42.126;24.752;2024-01-16T12:12:57;5.22;;;1.30;;
65174;SDS011;51761;42.126;24.752;2024-01-16T12:15:23;2.53;;;1.50;;
65174;SDS011;51761;42.126;24.752;2024-01-16T12:17:58;4.22;;;1.77;;
65174;SDS011;51761;42.126;24.752;2024-01-16T12:20:25;5.65;;;2.40;;
65174;SDS011;51761;42.126;24.752;2024-01-16T12:22:57;5.82;;;1.88;;
65174;SDS011;51761;42.126;24.752;2024-01-16T12:25:24;5.90;;;2.22;;
65174;SDS011;51761;42.126;24.752;2024-01-16T12:27:59;5.00;;;1.80;;
65174;SDS011;51761;42.126;24.752;2024-01-16T12:30:35;6.72;;;1.77;;
65174;SDS011;51761;42.126;24.752;2024-01-16T12:33:05;8.40;;;1.90;;
65174;SDS011;51761;42.126;24.752;2024-01-16T12:35:36;2.67;;;1.65;;
65174;SDS011;51761;42.126;24.752;2024-01-16T12:38:02;9.88;;;2.00;;
65174;SDS011;51761;42.126;24.752;2024-01-16T12:40:28;5.07;;;1.52;;
65174;SDS011;51761;42.126;24.752;2024-01-16T12:42:54;6.45;;;1.80;;
65174;SDS011;51761;42.126;24.752;2024-01-16T12:45:19;4.70;;;1.70;;
65174;SDS011;51761;42.126;24.752;2024-01-16T12:47:49;2.97;;;1.88;;
65174;SDS011;51761;42.126;24.752;2024-01-16T12:50:21;18.70;;;2.25;;
65174;SDS011;51761;42.126;24.752;2024-01-16T12:52:47;4.05;;;1.40;;
65174;SDS011;51761;42.126;24.752;2024-01-16T12:55:13;3.75;;;1.48;;
65174;SDS011;51761;42.126;24.752;2024-01-16T12:57:39;4.32;;;1.52;;
65174;SDS011;51761;42.126;24.752;2024-01-16T13:02:49;5.80;;;1.20;;
65174;SDS011;51761;42.126;24.752;2024-01-16T13:05:14;3.15;;;1.88;;
65174;SDS011;51761;42.126;24.752;2024-01-16T13:07:41;3.78;;;1.80;;
65174;SDS011;51761;42.126;24.752;2024-01-16T13:10:07;6.20;;;1.85;;
65174;SDS011;51761;42.126;24.752;2024-01-16T13:12:33;3.13;;;1.95;;
65174;SDS011;51761;42.126;24.752;2024-01-16T13:14:59;4.32;;;1.60;;
65174;SDS011;51761;42.126;24.752;2024-01-16T13:17:24;3.22;;;1.30;;
65174;SDS011;51761;42.126;24.752;2024-01-16T13:19:49;6.43;;;1.60;;
65174;SDS011;51761;42.126;24.752;2024-01-16T13:22:15;3.35;;;1.77;;
65174;SDS011;51761;42.126;24.752;2024-01-16T13:24:41;3.08;;;1.77;;
65174;SDS011;51761;42.126;24.752;2024-01-16T13:27:06;2.72;;;1.63;;
65174;SDS011;51761;42.126;24.752;2024-01-16T13:29:34;4.80;;;2.30;;
65174;SDS011;51761;42.126;24.752;2024-01-16T13:32:03;15.15;;;2.30;;
65174;SDS011;51761;42.126;24.752;2024-01-16T13:34:28;3.10;;;1.40;;
65174;SDS011;51761;42.126;24.752;2024-01-16T13:36:54;6.53;;;1.50;;
65174;SDS011;51761;42.126;24.752;2024-01-16T13:39:21;5.03;;;1.60;;
65174;SDS011;51761;42.126;24.752;2024-01-16T13:41:46;4.55;;;1.75;;
65174;SDS011;51761;42.126;24.752;2024-01-16T13:44:12;6.70;;;1.73;;
65174;SDS011;51761;42.126;24.752;2024-01-16T13:46:37;5.65;;;1.63;;
65174;SDS011;51761;42.126;24.752;2024-01-16T13:49:02;4.18;;;2.33;;
65174;SDS011;51761;42.126;24.752;2024-01-16T13:51:28;13.75;;;2.83;;
65174;SDS011;51761;42.126;24.752;2024-01-16T13:53:53;5.13;;;2.05;;
65174;SDS011;51761;42.126;24.752;2024-01-16T13:56:18;6.50;;;2.28;;
65174;SDS011;51761;42.126;24.752;2024-01-16T13:58:44;7.78;;;2.38;;
65174;SDS011;51761;42.126;24.752;2024-01-16T14:01:10;5.70;;;2.25;;
65174;SDS011;51761;42.126;24.752;2024-01-16T14:03:36;3.03;;;1.98;;
65174;SDS011;51761;42.126;24.752;2024-01-16T14:06:01;2.53;;;1.80;;
65174;SDS011;51761;42.126;24.752;2024-01-16T14:08:26;4.03;;;1.98;;
65174;SDS011;51761;42.126;24.752;2024-01-16T14:10:52;5.47;;;1.80;;
65174;SDS011;51761;42.126;24.752;2024-01-16T14:13:17;5.78;;;2.17;;
65174;SDS011;51761;42.126;24.752;2024-01-16T14:15:42;3.45;;;1.83;;
65174;SDS011;51761;42.126;24.752;2024-01-16T14:18:08;6.53;;;2.15;;
65174;SDS011;51761;42.126;24.752;2024-01-16T14:20:34;4.22;;;2.30;;